createdAt,value
2022-09-15T00:00:17.872Z,96.71
2022-09-15T00:03:06.409Z,96.98
2022-09-15T00:05:54.687Z,97.13
2022-09-15T00:08:43.200Z,97.01
2022-09-15T00:11:33.048Z,97.85
2022-09-15T00:14:20.410Z,98.46
2022-09-15T00:17:07.885Z,98.09
2022-09-15T00:19:58.450Z,99.22
2022-09-15T00:22:46.098Z,99.11
2022-09-15T00:25:33.372Z,99.23
2022-09-15T00:28:22.313Z,98.95
2022-09-15T00:31:11.810Z,99.11
2022-09-15T00:34:02.661Z,98.21
2022-09-15T00:36:51.548Z,98.36
2022-09-15T00:39:38.932Z,99.04
2022-09-15T00:42:26.704Z,98.40
2022-09-15T00:45:18.421Z,97.92
2022-09-15T00:48:07.492Z,96.76
2022-09-15T00:50:58.599Z,96.27
2022-09-15T00:53:49.402Z,95.92
2022-09-15T00:56:39.892Z,95.96
2022-09-15T00:59:30.954Z,96.77
2022-09-15T01:02:22.381Z,96.50
2022-09-15T01:05:12.166Z,96.73
2022-09-15T01:08:03.470Z,95.82
2022-09-15T01:10:52.243Z,96.69
2022-09-15T01:13:39.682Z,97.74
2022-09-15T01:16:33.785Z,97.97
2022-09-15T01:20:05.464Z,97.42
2022-09-15T01:23:10.108Z,98.37
2022-09-15T01:26:38.770Z,99.14
2022-09-15T01:29:50.836Z,100.00
2022-09-15T01:33:13.392Z,99.64
2022-09-15T01:36:06.345Z,100.00
2022-09-15T01:39:00.959Z,100.00
2022-09-15T01:41:52.192Z,100.00
2022-09-15T01:44:45.473Z,100.00
2022-09-15T01:47:34.903Z,100.00
2022-09-15T01:50:25.379Z,100.00
2022-09-15T01:53:16.451Z,100.00
2022-09-15T01:56:07.130Z,100.00
2022-09-15T01:58:54.468Z,99.82
2022-09-15T02:01:51.653Z,100.00
2022-09-15T02:04:47.209Z,100.00
2022-09-15T02:07:44.879Z,100.00
2022-09-15T02:10:40.241Z,100.00
2022-09-15T02:13:37.371Z,100.00
2022-09-15T02:16:28.962Z,100.00
2022-09-15T02:19:21.673Z,100.00
2022-09-15T02:22:17.662Z,100.00
2022-09-15T02:25:09.529Z,99.92
2022-09-15T02:28:01.067Z,100.00
2022-09-15T02:30:50.066Z,100.00
2022-09-15T02:33:44.347Z,99.34
2022-09-15T02:36:32.753Z,98.89
2022-09-15T02:39:24.164Z,98.03
2022-09-15T02:42:11.786Z,96.88
2022-09-15T02:45:00.039Z,95.51
2022-09-15T02:47:47.138Z,94.54
2022-09-15T02:50:34.592Z,95.28
2022-09-15T02:53:23.840Z,95.76
2022-09-15T02:56:11.067Z,94.17
2022-09-15T02:58:58.334Z,95.22
2022-09-15T03:01:45.786Z,96.13
2022-09-15T03:04:33.259Z,96.33
2022-09-15T03:07:21.857Z,95.41
2022-09-15T03:10:12.860Z,96.20
2022-09-15T03:13:00.406Z,95.72
2022-09-15T03:15:47.639Z,94.75
2022-09-15T03:18:34.970Z,93.99
2022-09-15T03:21:22.546Z,94.91
2022-09-15T03:24:09.889Z,95.49
2022-09-15T03:26:58.446Z,94.75
2022-09-15T03:29:46.145Z,95.01
2022-09-15T03:32:34.097Z,95.37
2022-09-15T03:35:20.726Z,95.33
2022-09-15T03:38:08.245Z,95.06
2022-09-15T03:41:00.222Z,95.05
2022-09-15T03:43:48.889Z,95.60
2022-09-15T03:46:36.361Z,96.10
2022-09-15T03:49:24.501Z,96.50
2022-09-15T03:52:12.439Z,97.04
2022-09-15T03:54:59.733Z,97.69
2022-09-15T03:57:46.948Z,98.48
2022-09-15T04:00:35.945Z,98.35
2022-09-15T04:03:23.569Z,98.06
2022-09-15T04:06:10.580Z,98.57
2022-09-15T04:09:00.188Z,98.27
2022-09-15T04:11:47.612Z,98.56
2022-09-15T04:14:35.436Z,98.94
2022-09-15T04:17:24.594Z,98.43
2022-09-15T04:20:11.661Z,97.64
2022-09-15T04:22:59.001Z,97.64
2022-09-15T04:25:55.822Z,97.42
2022-09-15T04:28:43.200Z,98.32
2022-09-15T04:31:30.070Z,98.60
2022-09-15T04:34:19.161Z,98.83
2022-09-15T04:37:07.626Z,98.70
2022-09-15T04:39:55.233Z,98.61
2022-09-15T04:42:43.308Z,98.96
2022-09-15T04:45:30.893Z,99.37
2022-09-15T04:48:17.980Z,99.78
2022-09-15T04:51:08.893Z,99.23
2022-09-15T04:53:55.715Z,99.27
2022-09-15T04:56:43.843Z,98.99
2022-09-15T04:59:31.156Z,99.44
2022-09-15T05:02:18.387Z,98.77
2022-09-15T05:05:06.638Z,97.77
2022-09-15T05:07:55.600Z,98.74
2022-09-15T05:10:43.120Z,99.72
2022-09-15T05:13:30.804Z,99.96
2022-09-15T05:16:20.291Z,99.61
2022-09-15T05:19:07.551Z,100.00
2022-09-15T05:21:54.881Z,100.00
2022-09-15T05:24:43.529Z,100.00
2022-09-15T05:27:32.711Z,100.00
2022-09-15T05:30:39.679Z,100.00
2022-09-15T05:33:27.478Z,99.96
2022-09-15T05:36:16.023Z,99.71
2022-09-15T05:39:03.390Z,99.07
2022-09-15T05:41:52.103Z,98.93
2022-09-15T05:44:39.546Z,97.59
2022-09-15T05:47:27.199Z,98.09
2022-09-15T05:50:14.773Z,97.99
2022-09-15T05:53:01.630Z,97.84
2022-09-15T05:55:49.641Z,98.50
2022-09-15T05:58:40.247Z,97.79
2022-09-15T06:01:30.096Z,96.99
2022-09-15T06:04:18.117Z,96.50
2022-09-15T06:07:05.916Z,96.44
2022-09-15T06:09:53.454Z,96.08
2022-09-15T06:12:40.873Z,96.35
2022-09-15T06:15:29.789Z,95.75
2022-09-15T06:18:17.441Z,96.29
2022-09-15T06:21:06.740Z,95.20
2022-09-15T06:23:55.254Z,95.53
2022-09-15T06:26:42.257Z,94.86
2022-09-15T06:29:30.119Z,95.69
2022-09-15T06:32:19.033Z,95.34
2022-09-15T06:35:07.200Z,95.74
2022-09-15T06:37:54.624Z,95.92
2022-09-15T06:40:41.754Z,96.53
2022-09-15T06:43:29.092Z,96.46
2022-09-15T06:46:18.275Z,95.24
2022-09-15T06:49:06.426Z,95.40
2022-09-15T06:51:54.189Z,94.91
2022-09-15T06:54:41.248Z,94.83
2022-09-15T06:57:28.570Z,95.52
2022-09-15T07:00:16.522Z,94.92
2022-09-15T07:03:04.204Z,95.41
2022-09-15T07:05:52.807Z,95.68
2022-09-15T07:08:40.998Z,94.33
2022-09-15T07:11:28.276Z,94.58
2022-09-15T07:14:15.541Z,93.21
2022-09-15T07:17:02.928Z,94.41
2022-09-15T07:19:50.230Z,93.59
2022-09-15T07:22:38.901Z,93.43
2022-09-15T07:25:26.089Z,92.90
2022-09-15T07:28:13.483Z,92.67
2022-09-15T07:31:01.109Z,92.86
2022-09-15T07:33:49.356Z,89.82
2022-09-15T07:36:37.123Z,90.49
2022-09-15T07:39:26.040Z,91.01
2022-09-15T07:42:13.637Z,89.90
2022-09-15T07:45:03.138Z,90.18
2022-09-15T07:47:50.424Z,90.00
2022-09-15T07:50:37.583Z,89.61
2022-09-15T07:53:25.295Z,87.98
2022-09-15T07:56:14.224Z,87.93
2022-09-15T07:59:01.752Z,88.09
2022-09-15T08:01:49.322Z,88.06
2022-09-15T08:04:36.137Z,88.37
2022-09-15T08:07:23.731Z,86.28
2022-09-15T08:10:11.213Z,86.25
2022-09-15T08:13:02.299Z,85.79
2022-09-15T08:15:50.053Z,85.31
2022-09-15T08:18:38.240Z,84.65
2022-09-15T08:21:25.776Z,83.86
2022-09-15T08:24:13.718Z,82.67
2022-09-15T08:27:01.382Z,82.26
2022-09-15T08:29:51.188Z,81.61
2022-09-15T08:32:38.770Z,80.93
2022-09-15T08:35:26.360Z,81.09
2022-09-15T08:38:13.550Z,79.51
2022-09-15T08:41:04.476Z,77.41
2022-09-15T08:43:57.417Z,76.85
2022-09-15T08:46:53.514Z,77.99
2022-09-15T08:49:51.934Z,75.77
2022-09-15T08:52:44.396Z,72.64
2022-09-15T08:55:39.956Z,74.37
2022-09-15T08:58:31.020Z,72.93
2022-09-15T09:01:34.286Z,71.33
2022-09-15T09:04:39.292Z,72.05
2022-09-15T09:07:52.375Z,71.31
2022-09-15T09:10:49.306Z,70.21
2022-09-15T09:13:41.272Z,70.64
2022-09-15T09:16:59.140Z,68.55
2022-09-15T09:20:02.295Z,68.58
2022-09-15T09:22:53.717Z,65.08
2022-09-15T09:25:41.552Z,65.61
2022-09-15T09:28:36.999Z,66.08
2022-09-15T09:31:26.670Z,64.40
2022-09-15T09:34:21.756Z,62.86
2022-09-15T09:37:15.709Z,59.67
2022-09-15T09:40:03.801Z,60.84
2022-09-15T09:42:51.263Z,60.95
2022-09-15T09:45:39.177Z,61.62
2022-09-15T09:48:28.664Z,63.60
2022-09-15T09:51:35.799Z,61.40
2022-09-15T09:54:28.843Z,59.80
2022-09-15T09:57:27.545Z,59.67
2022-09-15T10:00:33.373Z,59.85
2022-09-15T10:03:22.471Z,58.99
2022-09-15T10:06:15.091Z,59.96
2022-09-15T10:09:09.117Z,58.63
2022-09-15T10:12:01.533Z,60.29
2022-09-15T10:14:53.337Z,58.91
2022-09-15T10:17:43.637Z,59.04
2022-09-15T10:20:33.851Z,57.83
2022-09-15T10:23:26.681Z,57.57
2022-09-15T10:26:32.122Z,57.69
2022-09-15T10:29:21.033Z,56.07
2022-09-15T10:32:25.177Z,57.14
2022-09-15T10:35:15.586Z,56.60
2022-09-15T10:38:09.654Z,56.08
2022-09-15T10:41:04.505Z,55.94
2022-09-15T10:44:11.069Z,55.78
2022-09-15T10:47:14.711Z,53.61
2022-09-15T10:50:12.416Z,51.53
2022-09-15T10:53:15.377Z,52.20
2022-09-15T10:56:19.261Z,51.30
2022-09-15T10:59:28.056Z,52.61
2022-09-15T11:02:45.141Z,53.06
2022-09-15T11:05:54.877Z,54.50
2022-09-15T11:09:00.480Z,52.74
2022-09-15T11:12:01.848Z,53.68
2022-09-15T11:15:06.953Z,53.87
2022-09-15T11:18:09.589Z,53.71
2022-09-15T11:21:18.708Z,51.69
2022-09-15T11:24:25.383Z,51.42
2022-09-15T11:27:20.078Z,51.52
2022-09-15T11:30:15.820Z,52.42
2022-09-15T11:33:10.742Z,51.27
2022-09-15T11:36:04.231Z,54.02
2022-09-15T11:38:55.615Z,52.41
2022-09-15T11:41:49.813Z,52.78
2022-09-15T11:44:40.303Z,51.12
2022-09-15T11:47:31.916Z,53.27
2022-09-15T11:50:23.812Z,51.66
2022-09-15T11:53:18.945Z,50.23
2022-09-15T11:56:21.749Z,51.73
2022-09-15T11:59:22.339Z,51.63
2022-09-15T12:02:20.731Z,50.97
2022-09-15T12:05:13.193Z,50.82
2022-09-15T12:08:08.186Z,50.74
2022-09-15T12:10:58.066Z,51.12
2022-09-15T12:13:46.118Z,50.67
2022-09-15T12:16:35.789Z,49.26
2022-09-15T12:19:43.510Z,50.17
2022-09-15T12:22:36.909Z,48.59
2022-09-15T12:25:30.873Z,49.16
2022-09-15T12:28:38.771Z,50.09
2022-09-15T12:31:38.228Z,51.32
2022-09-15T12:34:37.274Z,50.32
2022-09-15T12:37:25.843Z,51.10
2022-09-15T12:40:35.046Z,50.18
2022-09-15T12:43:25.066Z,51.04
2022-09-15T12:46:18.409Z,52.19
2022-09-15T12:49:05.863Z,50.35
2022-09-15T12:51:54.249Z,51.37
2022-09-15T12:54:43.868Z,51.47
2022-09-15T12:57:36.183Z,52.64
2022-09-15T13:00:36.283Z,50.91
2022-09-15T13:03:54.113Z,50.44
2022-09-15T13:06:41.665Z,50.92
2022-09-15T13:09:29.620Z,49.96
2022-09-15T13:12:21.030Z,50.05
2022-09-15T13:15:16.313Z,49.71
2022-09-15T13:18:07.091Z,49.58
2022-09-15T13:21:01.191Z,50.25
2022-09-15T13:23:53.023Z,50.66
2022-09-15T13:26:41.624Z,50.16
2022-09-15T13:29:32.950Z,50.55
2022-09-15T13:32:34.566Z,51.94
2022-09-15T13:35:38.932Z,50.90
2022-09-15T13:38:52.300Z,52.20
2022-09-15T13:41:57.738Z,53.35
2022-09-15T13:45:21.022Z,55.14
2022-09-15T13:48:36.442Z,56.66
2022-09-15T13:51:26.966Z,57.89
2022-09-15T13:54:19.021Z,57.92
2022-09-15T13:57:06.559Z,59.79
2022-09-15T13:59:54.560Z,61.27
2022-09-15T14:02:45.798Z,60.13
2022-09-15T14:05:36.436Z,59.88
2022-09-15T14:08:26.831Z,61.79
2022-09-15T14:11:16.928Z,61.21
2022-09-15T14:14:08.284Z,61.69
2022-09-15T14:16:57.173Z,61.35
2022-09-15T14:19:45.249Z,60.06
2022-09-15T14:22:35.734Z,60.26
2022-09-15T14:25:23.598Z,60.64
2022-09-15T14:28:20.431Z,60.83
2022-09-15T14:31:08.331Z,59.73
2022-09-15T14:33:55.956Z,59.08
2022-09-15T14:36:43.446Z,60.00
2022-09-15T14:39:33.474Z,61.22
2022-09-15T14:42:23.355Z,60.90
2022-09-15T14:48:28.248Z,60.60
2022-09-15T14:51:22.689Z,60.77
2022-09-15T14:54:17.835Z,60.58
2022-09-15T14:57:10.471Z,60.76
2022-09-15T15:00:01.410Z,61.82
2022-09-15T15:03:01.569Z,61.50
2022-09-15T15:06:02.298Z,63.16
2022-09-15T15:08:56.347Z,63.76
2022-09-15T15:11:43.896Z,64.55
2022-09-15T15:14:32.743Z,63.15
2022-09-15T15:17:32.778Z,63.77
2022-09-15T15:20:23.349Z,64.10
2022-09-15T15:23:15.626Z,63.28
2022-09-15T15:26:25.755Z,64.18
2022-09-15T15:29:43.051Z,63.59
2022-09-15T15:32:31.121Z,64.35
2022-09-15T15:35:19.810Z,64.63
2022-09-15T15:38:14.203Z,65.28
2022-09-15T15:41:03.163Z,64.82
2022-09-15T15:44:09.070Z,65.33
2022-09-15T15:47:01.679Z,63.97
2022-09-15T15:50:11.888Z,63.86
2022-09-15T15:52:57.693Z,64.06
2022-09-15T15:55:46.754Z,63.82
2022-09-15T15:58:34.688Z,64.16
2022-09-15T16:01:23.862Z,62.70
2022-09-15T16:04:13.422Z,62.12
2022-09-15T16:07:01.555Z,63.24
2022-09-15T16:09:50.449Z,62.91
2022-09-15T16:12:37.499Z,62.01
2022-09-15T16:15:25.023Z,61.57
2022-09-15T16:18:13.321Z,60.90
2022-09-15T16:21:02.589Z,61.68
2022-09-15T16:23:50.235Z,61.99
2022-09-15T16:26:38.344Z,61.22
2022-09-15T16:29:29.171Z,62.02
2022-09-15T16:32:20.220Z,62.04
2022-09-15T16:35:21.145Z,61.74
2022-09-15T16:38:10.351Z,61.21
2022-09-15T16:40:57.319Z,59.51
2022-09-15T16:43:45.974Z,61.17
2022-09-15T16:46:33.789Z,61.65
2022-09-15T16:49:21.058Z,59.99
2022-09-15T16:52:11.265Z,61.90
2022-09-15T16:55:00.455Z,63.76
2022-09-15T16:57:48.038Z,63.57
2022-09-15T17:00:38.297Z,63.35
2022-09-15T17:03:27.346Z,64.09
2022-09-15T17:06:16.345Z,64.27
2022-09-15T17:09:03.524Z,64.52
2022-09-15T17:11:52.682Z,64.98
2022-09-15T17:14:40.182Z,66.06
2022-09-15T17:17:27.588Z,65.74
2022-09-15T17:20:15.526Z,66.17
2022-09-15T17:23:03.795Z,66.83
2022-09-15T17:25:53.294Z,66.73
2022-09-15T17:28:42.359Z,67.43
2022-09-15T17:31:29.866Z,68.25
2022-09-15T17:34:17.352Z,68.39
2022-09-15T17:37:05.209Z,68.69
2022-09-15T17:39:58.691Z,68.86
2022-09-15T17:42:47.335Z,69.23
2022-09-15T17:45:38.130Z,70.02
2022-09-15T17:48:26.092Z,69.01
2022-09-15T17:51:16.593Z,69.13
2022-09-15T17:54:04.331Z,68.85
2022-09-15T17:56:51.785Z,69.77
2022-09-15T17:59:38.942Z,69.14
2022-09-15T18:02:27.762Z,69.41
2022-09-15T18:05:25.423Z,68.87
2022-09-15T18:08:12.401Z,69.97
2022-09-15T18:11:00.944Z,69.85
2022-09-15T18:13:48.600Z,69.65
2022-09-15T18:16:36.098Z,69.55
2022-09-15T18:19:24.927Z,68.99
2022-09-15T18:22:14.354Z,68.37
2022-09-15T18:25:02.109Z,68.08
2022-09-15T18:27:50.040Z,68.58
2022-09-15T18:30:40.648Z,68.14
2022-09-15T18:33:28.553Z,68.49
2022-09-15T18:36:17.258Z,68.35
2022-09-15T18:39:06.445Z,68.52
2022-09-15T18:41:55.068Z,69.02
2022-09-15T18:44:41.987Z,69.30
2022-09-15T18:47:29.541Z,68.59
2022-09-15T18:50:18.377Z,69.25
2022-09-15T18:53:07.705Z,69.41
2022-09-15T18:55:55.080Z,68.43
2022-09-15T18:58:42.634Z,68.91
2022-09-15T19:01:30.048Z,69.39
2022-09-15T19:04:17.970Z,69.39
2022-09-15T19:07:05.512Z,70.11
2022-09-15T19:09:56.487Z,70.31
2022-09-15T19:12:44.940Z,70.22
2022-09-15T19:15:33.948Z,70.53
2022-09-15T19:18:22.202Z,69.84
2022-09-15T19:21:11.499Z,69.87
2022-09-15T19:23:59.501Z,69.44
2022-09-15T19:26:48.399Z,70.62
2022-09-15T19:29:36.299Z,70.55
2022-09-15T19:32:24.232Z,70.29
2022-09-15T19:35:11.378Z,70.45
2022-09-15T19:37:59.192Z,70.00
2022-09-15T19:40:46.701Z,70.44
2022-09-15T19:43:36.236Z,71.04
2022-09-15T19:46:25.529Z,70.62
2022-09-15T19:49:12.982Z,71.06
2022-09-15T19:52:00.350Z,70.87
2022-09-15T19:54:48.347Z,71.30
2022-09-15T19:57:35.527Z,71.30
2022-09-15T20:00:24.767Z,72.01
2022-09-15T20:03:12.093Z,72.01
2022-09-15T20:05:59.300Z,71.73
2022-09-15T20:08:47.635Z,71.38
2022-09-15T20:11:35.094Z,71.60
2022-09-15T20:14:22.739Z,71.67
2022-09-15T20:17:11.462Z,71.37
2022-09-15T20:19:59.058Z,71.66
2022-09-15T20:22:46.891Z,72.14
2022-09-15T20:25:34.099Z,72.85
2022-09-15T20:28:21.383Z,73.18
2022-09-15T20:31:12.206Z,73.13
2022-09-15T20:34:02.215Z,72.60
2022-09-15T20:36:49.627Z,73.50
2022-09-15T20:39:37.098Z,72.79
2022-09-15T20:42:24.508Z,73.26
2022-09-15T20:45:12.417Z,73.35
2022-09-15T20:48:00.555Z,73.56
2022-09-15T20:50:49.632Z,74.19
2022-09-15T20:53:36.826Z,75.12
2022-09-15T20:56:26.299Z,74.58
2022-09-15T20:59:15.326Z,75.52
2022-09-15T21:02:04.411Z,75.88
2022-09-15T21:04:51.448Z,75.39
2022-09-15T21:07:41.150Z,75.13
2022-09-15T21:10:30.541Z,76.31
2022-09-15T21:13:19.295Z,76.31
2022-09-15T21:16:08.349Z,76.23
2022-09-15T21:18:57.848Z,76.54
2022-09-15T21:21:45.105Z,76.54
2022-09-15T21:24:33.718Z,77.02
2022-09-15T21:27:30.655Z,77.89
2022-09-15T21:30:18.674Z,77.77
2022-09-15T21:33:06.551Z,78.09
2022-09-15T21:35:54.127Z,78.54
2022-09-15T21:38:44.125Z,78.97
2022-09-15T21:41:33.116Z,78.77
2022-09-15T21:44:20.551Z,78.90
2022-09-15T21:47:08.259Z,78.58
2022-09-15T21:49:55.782Z,78.91
2022-09-15T21:52:43.264Z,79.43
2022-09-15T21:55:31.272Z,79.38
2022-09-15T21:58:21.901Z,79.43
2022-09-15T22:01:12.689Z,79.09
2022-09-15T22:04:01.266Z,78.98
2022-09-15T22:06:50.173Z,79.49
2022-09-15T22:09:38.858Z,79.92
2022-09-15T22:12:26.018Z,79.91
2022-09-15T22:15:15.088Z,79.82
2022-09-15T22:18:03.041Z,79.04
2022-09-15T22:20:52.469Z,79.26
2022-09-15T22:23:40.979Z,79.43
2022-09-15T22:26:30.901Z,79.71
2022-09-15T22:29:18.829Z,79.74
2022-09-15T22:32:07.284Z,79.69
2022-09-15T22:34:54.873Z,79.90
2022-09-15T22:37:42.074Z,80.28
2022-09-15T22:40:29.659Z,80.00
2022-09-15T22:43:17.068Z,80.27
2022-09-15T22:46:04.042Z,80.16
2022-09-15T22:48:53.442Z,80.36
2022-09-15T22:51:40.903Z,80.13
2022-09-15T22:54:28.646Z,80.49
2022-09-15T22:57:15.964Z,80.02
2022-09-15T23:00:03.756Z,79.72
2022-09-15T23:02:52.060Z,79.76
2022-09-15T23:05:40.550Z,79.88
2022-09-15T23:08:28.292Z,80.54
2022-09-15T23:11:15.598Z,80.51
2022-09-15T23:14:03.360Z,79.60
2022-09-15T23:16:51.128Z,79.75
2022-09-15T23:19:38.208Z,80.27
2022-09-15T23:22:27.307Z,80.90
2022-09-15T23:25:15.053Z,80.50
2022-09-15T23:28:03.077Z,81.02
2022-09-15T23:30:53.254Z,80.65
2022-09-15T23:33:41.127Z,80.49
2022-09-15T23:36:28.626Z,80.26
2022-09-15T23:39:17.186Z,80.37
2022-09-15T23:42:04.908Z,80.09
2022-09-15T23:44:52.363Z,80.00
2022-09-15T23:47:39.765Z,79.20
2022-09-15T23:50:29.107Z,79.58
2022-09-15T23:53:18.285Z,79.76
2022-09-15T23:56:07.455Z,80.45
2022-09-15T23:58:54.564Z,81.21
